Airports Denmark Aalborg Airport

Aalborg Airport (EKYT / AAL)

Facts about Aalborg Airport

Name Aalborg Airport
City Aalborg
Country Denmark
ICAO code EKYT
IATA code AAL
Elevation 3.0480 meters (10 feet)

Weather

METAR

Metar data retrieved Saturday, 20 July 2024 at 00:55 UTC (16 minutes ago)

EKYT 200020Z AUTO 08001KT 9999 NCD 14/12 Q1017

Live traffic

Navigraph Charts (account required)